Terminal Aerodrome Forecast
Issued by NWS

Home | Current Version | Previous Version | Text Only | Print | Product List | Glossary On
Versions: 1 2 3 4 5 6 7 8 9 10 11 12 13 14 15
221
FTUS46 KLOX 131144
TAFSBP
TAF
KSBP 131144Z 1312/1412 VRB03KT P6SM BKN250
     FM132100 34015KT P6SM SKC
     FM140400 32008KT P6SM SKC
     FM140700 VRB03KT P6SM SKC=

USA.gov is the U.S. government's official web portal to all federal, state and local government web resources and services.